West Frankfort, Illinois
Current Conditions -  °F | °C
As of 9:45 AM on Monday 24 Nov 2014 (Local Time) from KMWA Reporting Station
Overcast Overcast  
Wind Chill: 39°   Ceiling: 3300
Heat Index: 45°   Visibility: 10mi
Dew Point: 36°   Wind: 12mph
Humidity: 71%   Direction: 230°SW
Pressure: 29.69"   Gusts: 16mph
Location:  37.9°N, 88.92°W
Report Text: KMWA 241545Z 23010G14KT 10SM OVC033 07/02 A2969
Loading
Personal Weather Stations






























Interactive Weather Map New forecast layout! Learn more

10-Day Weather Forecast

Advertisements
Track Severe Weather on mobile